createdAt,value
2019-04-05T00:01:33.258Z,6.25
2019-04-05T00:04:02.592Z,6.23
2019-04-05T00:06:32.447Z,6.23
2019-04-05T00:09:01.772Z,6.21
2019-04-05T00:11:31.131Z,6.20
2019-04-05T00:14:02.638Z,6.17
2019-04-05T00:16:32.148Z,6.15
2019-04-05T00:19:01.307Z,6.13
2019-04-05T00:21:30.426Z,6.15
2019-04-05T00:24:02.103Z,6.15
2019-04-05T00:26:31.092Z,6.15
2019-04-05T00:28:59.992Z,6.17
2019-04-05T00:31:29.384Z,6.18
2019-04-05T00:33:59.063Z,6.20
2019-04-05T00:36:27.972Z,6.21
2019-04-05T00:38:56.898Z,6.21
2019-04-05T00:41:25.850Z,6.18
2019-04-05T00:43:54.968Z,6.17
2019-04-05T00:46:24.518Z,6.17
2019-04-05T00:48:54.541Z,6.15
2019-04-05T00:51:25.487Z,6.15
2019-04-05T00:53:55.269Z,6.16
2019-04-05T00:56:24.196Z,6.18
2019-04-05T00:58:54.246Z,6.20
2019-04-05T01:01:23.014Z,6.22
2019-04-05T01:03:52.065Z,6.23
2019-04-05T01:06:21.977Z,6.23
2019-04-05T01:08:50.754Z,6.21
2019-04-05T01:11:20.111Z,6.20
2019-04-05T01:13:48.960Z,6.19
2019-04-05T01:16:19.068Z,6.18
2019-04-05T01:18:47.991Z,6.18
2019-04-05T01:21:19.943Z,6.14
2019-04-05T01:23:49.764Z,6.11
2019-04-05T01:26:18.950Z,6.08
2019-04-05T01:28:47.787Z,6.04
2019-04-05T01:31:17.071Z,6.01
2019-04-05T01:33:47.956Z,6.01
2019-04-05T01:36:17.297Z,6.00
2019-04-05T01:38:46.119Z,6.01
2019-04-05T01:41:15.948Z,6.02
2019-04-05T01:43:45.239Z,6.04
2019-04-05T01:46:14.211Z,6.08
2019-04-05T01:48:44.525Z,6.08
2019-04-05T01:51:13.368Z,6.09
2019-04-05T01:53:44.531Z,6.10
2019-04-05T01:56:14.144Z,6.11
2019-04-05T01:58:43.728Z,6.10
2019-04-05T02:01:12.564Z,6.09
2019-04-05T02:03:41.380Z,6.09
2019-04-05T02:06:11.973Z,6.07
2019-04-05T02:08:41.699Z,6.09
2019-04-05T02:11:10.815Z,6.08
2019-04-05T02:13:39.630Z,6.06
2019-04-05T02:16:10.023Z,6.07
2019-04-05T02:18:38.868Z,6.08
2019-04-05T02:21:08.967Z,6.10
2019-04-05T02:23:37.911Z,6.10
2019-04-05T02:26:08.271Z,6.10
2019-04-05T02:28:37.230Z,6.11
2019-04-05T02:31:07.409Z,6.13
2019-04-05T02:33:36.382Z,6.14
2019-04-05T02:36:06.451Z,6.14
2019-04-05T02:38:35.298Z,6.12
2019-04-05T02:41:04.143Z,6.11
2019-04-05T02:43:33.508Z,6.11
2019-04-05T02:46:03.169Z,6.11
2019-04-05T02:48:32.717Z,6.10
2019-04-05T02:51:01.602Z,6.07
2019-04-05T02:53:31.673Z,6.04
2019-04-05T02:56:03.006Z,5.98
2019-04-05T02:58:29.455Z,5.95
2019-04-05T03:00:58.306Z,5.95
2019-04-05T03:03:28.385Z,5.95
2019-04-05T03:05:57.928Z,5.95
2019-04-05T03:08:26.810Z,5.93
2019-04-05T03:11:04.612Z,5.91
2019-04-05T03:13:35.564Z,5.90
2019-04-05T03:16:07.081Z,5.87
2019-04-05T03:18:36.373Z,5.81
2019-04-05T03:21:05.880Z,5.75
2019-04-05T03:23:35.008Z,5.70
2019-04-05T03:26:04.746Z,5.64
2019-04-05T03:28:34.333Z,5.56
2019-04-05T03:31:03.541Z,5.67
2019-04-05T03:33:32.889Z,5.50
2019-04-05T03:36:01.940Z,5.44
2019-04-05T03:38:30.802Z,5.37
2019-04-05T03:40:59.665Z,5.31
2019-04-05T03:43:28.495Z,5.28
2019-04-05T03:45:57.308Z,5.22
2019-04-05T03:48:26.983Z,5.15
2019-04-05T03:50:55.978Z,5.09
2019-04-05T03:53:24.765Z,5.03
2019-04-05T03:55:53.576Z,5.00
2019-04-05T03:58:22.432Z,4.98
2019-04-05T04:00:51.257Z,4.93
2019-04-05T04:03:20.760Z,4.88
2019-04-05T04:05:49.690Z,4.84
2019-04-05T04:08:23.263Z,4.81
2019-04-05T04:10:49.315Z,4.75
2019-04-05T04:13:18.405Z,4.71
2019-04-05T04:15:48.485Z,4.66
2019-04-05T04:18:17.406Z,4.66
2019-04-05T04:20:46.460Z,4.65
2019-04-05T04:23:15.697Z,4.65
2019-04-05T04:25:45.536Z,4.63
2019-04-05T04:28:14.672Z,4.62
2019-04-05T04:30:45.011Z,4.59
2019-04-05T04:33:13.812Z,4.57
2019-04-05T04:35:42.633Z,4.56
2019-04-05T04:38:11.430Z,4.54
2019-04-05T04:40:41.366Z,4.53
2019-04-05T04:43:10.791Z,4.53
2019-04-05T04:45:39.642Z,4.54
2019-04-05T04:48:08.739Z,4.52
2019-04-05T04:50:40.922Z,4.53
2019-04-05T04:53:10.464Z,4.52
2019-04-05T04:55:39.282Z,4.50
2019-04-05T04:58:10.067Z,4.50
2019-04-05T05:00:39.425Z,4.48
2019-04-05T05:03:09.976Z,4.46
2019-04-05T05:05:38.854Z,4.46
2019-04-05T05:08:07.856Z,4.46
2019-04-05T05:10:36.823Z,4.45
2019-04-05T05:13:07.563Z,4.44
2019-04-05T05:15:38.003Z,4.42
2019-04-05T05:18:08.494Z,4.40
2019-04-05T05:20:37.914Z,4.39
2019-04-05T05:23:07.659Z,4.39
2019-04-05T05:25:36.637Z,4.40
2019-04-05T05:28:05.874Z,4.41
2019-04-05T05:30:35.135Z,4.41
2019-04-05T05:33:04.108Z,4.41
2019-04-05T05:35:32.995Z,4.41
2019-04-05T05:38:02.627Z,4.41
2019-04-05T05:40:35.159Z,4.44
2019-04-05T05:43:00.280Z,4.46
2019-04-05T05:45:29.112Z,4.46
2019-04-05T05:47:57.901Z,4.48
2019-04-05T05:50:28.069Z,4.55
2019-04-05T05:52:58.806Z,4.63
2019-04-05T05:55:30.118Z,4.67
2019-04-05T05:57:58.845Z,4.68
2019-04-05T06:00:30.315Z,4.73
2019-04-05T06:02:56.388Z,4.81
2019-04-05T06:05:25.915Z,4.90
2019-04-05T06:07:58.763Z,4.98
2019-04-05T06:10:26.086Z,5.07
2019-04-05T06:12:58.552Z,5.20
2019-04-05T06:15:24.371Z,5.35
2019-04-05T06:18:04.592Z,5.48
2019-04-05T06:20:24.684Z,5.65
2019-04-05T06:22:55.998Z,5.86
2019-04-05T06:25:25.029Z,6.13
2019-04-05T06:27:54.494Z,7.33
2019-04-05T06:30:28.514Z,9.81
2019-04-05T06:32:53.895Z,12.21
2019-04-05T06:35:24.054Z,13.95
2019-04-05T06:37:53.646Z,14.84
2019-04-05T06:40:22.472Z,15.91
2019-04-05T06:42:51.732Z,16.74
2019-04-05T06:45:20.609Z,17.51
2019-04-05T06:47:49.918Z,17.53
2019-04-05T06:50:18.859Z,17.83
2019-04-05T06:52:49.725Z,17.79
2019-04-05T06:55:18.618Z,18.60
2019-04-05T06:57:47.481Z,19.56
2019-04-05T07:00:17.078Z,19.86
2019-04-05T07:02:46.399Z,20.02
2019-04-05T07:05:15.296Z,20.73
2019-04-05T07:07:44.200Z,19.88
2019-04-05T07:10:13.151Z,19.57
2019-04-05T07:12:42.094Z,18.56
2019-04-05T07:15:11.643Z,19.39
2019-04-05T07:17:41.283Z,19.76
2019-04-05T07:20:11.846Z,19.30
2019-04-05T07:22:42.049Z,19.51
2019-04-05T07:25:11.083Z,20.31
2019-04-05T07:27:39.914Z,20.24
2019-04-05T07:30:08.980Z,20.77
2019-04-05T07:32:38.681Z,21.70
2019-04-05T07:35:08.447Z,22.81
2019-04-05T07:37:37.790Z,23.24
2019-04-05T07:40:08.602Z,23.35
2019-04-05T07:42:37.846Z,23.46
2019-04-05T07:45:07.034Z,23.90
2019-04-05T07:47:36.667Z,23.10
2019-04-05T07:50:06.345Z,23.43
2019-04-05T07:52:35.187Z,23.22
2019-04-05T07:55:04.674Z,21.94
2019-04-05T07:57:33.532Z,21.67
2019-04-05T08:00:02.374Z,20.98
2019-04-05T08:02:31.850Z,21.44
2019-04-05T08:05:00.898Z,22.51
2019-04-05T08:07:30.210Z,23.35
2019-04-05T08:10:02.679Z,23.86
2019-04-05T08:12:29.931Z,23.84
2019-04-05T08:14:59.394Z,23.84
2019-04-05T08:17:28.430Z,23.58
2019-04-05T08:19:57.844Z,22.69
2019-04-05T08:22:26.650Z,20.63
2019-04-05T08:24:56.451Z,19.70
2019-04-05T08:27:26.658Z,19.19
2019-04-05T08:29:55.465Z,17.99
2019-04-05T08:32:24.261Z,17.04
2019-04-05T08:34:55.423Z,16.58
2019-04-05T08:37:24.536Z,16.19
2019-04-05T08:39:53.518Z,15.90
2019-04-05T08:42:22.376Z,15.86
2019-04-05T08:44:51.674Z,15.68
2019-04-05T08:47:22.566Z,15.28
2019-04-05T08:49:50.046Z,14.75
2019-04-05T08:52:18.877Z,14.77
2019-04-05T08:54:47.769Z,15.09
2019-04-05T08:57:16.619Z,15.20
2019-04-05T08:59:46.188Z,15.15
2019-04-05T09:02:15.052Z,15.06
2019-04-05T09:04:43.891Z,14.77
2019-04-05T09:07:13.420Z,14.55
2019-04-05T09:09:43.136Z,14.98
2019-04-05T09:12:13.172Z,15.23
2019-04-05T09:14:42.058Z,15.08
2019-04-05T09:17:10.879Z,14.65
2019-04-05T09:19:40.376Z,14.63
2019-04-05T09:22:09.195Z,14.80
2019-04-05T09:24:38.060Z,14.68
2019-04-05T09:27:07.903Z,14.96
2019-04-05T09:29:36.818Z,14.94
2019-04-05T09:32:05.820Z,14.87
2019-04-05T09:34:34.643Z,14.95
2019-04-05T09:37:03.760Z,14.74
2019-04-05T09:39:33.063Z,14.91
2019-04-05T09:42:01.904Z,14.88
2019-04-05T09:44:32.039Z,14.96
2019-04-05T09:47:01.876Z,15.06
2019-04-05T09:49:36.973Z,15.23
2019-04-05T09:52:03.214Z,15.54
2019-04-05T09:54:33.328Z,15.43
2019-04-05T09:57:03.370Z,15.61
2019-04-05T09:59:32.499Z,15.99
2019-04-05T10:02:04.439Z,16.30
2019-04-05T10:04:33.222Z,16.11
2019-04-05T10:07:03.492Z,16.39
2019-04-05T10:09:33.312Z,16.77
2019-04-05T10:12:03.464Z,16.74
2019-04-05T10:14:32.443Z,16.06
2019-04-05T10:17:01.240Z,16.09
2019-04-05T10:19:30.725Z,15.95
2019-04-05T10:21:59.576Z,16.71
2019-04-05T10:24:29.456Z,17.43
2019-04-05T10:26:58.438Z,17.94
2019-04-05T10:29:27.471Z,17.45
2019-04-05T10:31:56.748Z,17.42
2019-04-05T10:34:26.009Z,17.25
2019-04-05T10:36:54.960Z,16.82
2019-04-05T10:39:23.843Z,17.17
2019-04-05T10:42:02.832Z,16.93
2019-04-05T10:44:21.649Z,16.28
2019-04-05T10:46:51.046Z,16.33
2019-04-05T10:49:20.708Z,16.65
2019-04-05T10:51:49.611Z,16.68
2019-04-05T10:54:18.462Z,17.04
2019-04-05T10:56:49.610Z,17.54
2019-04-05T10:59:19.406Z,16.86
2019-04-05T11:01:48.763Z,16.64
2019-04-05T11:04:21.523Z,16.58
2019-04-05T11:06:51.539Z,16.14
2019-04-05T11:09:20.817Z,16.10
2019-04-05T11:11:50.698Z,16.36
2019-04-05T11:14:19.604Z,16.30
2019-04-05T11:16:58.237Z,16.18
2019-04-05T11:19:18.186Z,16.05
2019-04-05T11:21:48.519Z,15.81
2019-04-05T11:24:16.686Z,15.71
2019-04-05T11:26:45.490Z,15.71
2019-04-05T11:29:14.851Z,15.67
2019-04-05T11:31:55.967Z,15.74
2019-04-05T11:34:12.792Z,15.77
2019-04-05T11:36:42.806Z,15.24
2019-04-05T11:39:12.302Z,15.03
2019-04-05T11:41:41.123Z,15.14
2019-04-05T11:44:10.877Z,15.08
2019-04-05T11:46:39.688Z,14.98
2019-04-05T11:49:09.692Z,14.78
2019-04-05T11:51:38.991Z,14.83
2019-04-05T11:54:08.503Z,14.48
2019-04-05T11:56:37.867Z,14.21
2019-04-05T11:59:08.780Z,14.07
2019-04-05T12:01:44.222Z,14.15
2019-04-05T12:04:13.132Z,13.62
2019-04-05T12:06:42.019Z,13.50
2019-04-05T12:09:10.859Z,13.62
2019-04-05T12:11:39.697Z,13.74
2019-04-05T12:14:08.570Z,13.94
2019-04-05T12:16:38.731Z,13.99
2019-04-05T12:19:08.591Z,13.73
2019-04-05T12:21:37.409Z,13.46
2019-04-05T12:24:06.664Z,13.41
2019-04-05T12:26:35.467Z,13.48
2019-04-05T12:29:04.409Z,13.43
2019-04-05T12:31:33.297Z,13.55
2019-04-05T12:34:02.088Z,13.44
2019-04-05T12:36:30.871Z,13.48
2019-04-05T12:39:01.575Z,13.47
2019-04-05T12:41:28.835Z,13.50
2019-04-05T12:43:58.917Z,13.42
2019-04-05T12:46:27.815Z,13.52
2019-04-05T12:48:56.703Z,13.73
2019-04-05T12:51:26.684Z,13.57
2019-04-05T12:53:57.373Z,13.53
2019-04-05T12:56:27.252Z,13.55
2019-04-05T12:58:57.049Z,13.65
2019-04-05T13:01:26.614Z,13.58
2019-04-05T13:03:58.655Z,13.71
2019-04-05T13:06:25.288Z,13.60
2019-04-05T13:08:54.883Z,13.71
2019-04-05T13:11:26.772Z,13.48
2019-04-05T13:13:54.353Z,13.36
2019-04-05T13:16:22.771Z,13.24
2019-04-05T13:18:51.596Z,13.25
2019-04-05T13:21:20.474Z,13.22
2019-04-05T13:23:49.351Z,13.26
2019-04-05T13:26:19.460Z,13.31
2019-04-05T13:28:48.573Z,13.51
2019-04-05T13:31:18.879Z,13.67
2019-04-05T13:33:46.174Z,13.60
2019-04-05T13:36:15.077Z,13.76
2019-04-05T13:38:54.197Z,13.76
2019-04-05T13:41:13.346Z,13.75
2019-04-05T13:43:42.750Z,13.56
2019-04-05T13:46:21.312Z,13.80
2019-04-05T13:48:40.690Z,14.05
2019-04-05T13:51:12.253Z,14.12
2019-04-05T13:53:40.475Z,13.78
2019-04-05T13:56:10.956Z,13.56
2019-04-05T13:58:39.166Z,13.63
2019-04-05T14:01:08.007Z,13.60
2019-04-05T14:03:39.879Z,13.76
2019-04-05T14:06:10.695Z,14.08
2019-04-05T14:08:41.128Z,14.40
2019-04-05T14:11:06.481Z,14.23
2019-04-05T14:13:35.363Z,14.01
2019-04-05T14:16:06.233Z,13.88
2019-04-05T14:18:33.104Z,13.78
2019-04-05T14:21:01.984Z,13.79
2019-04-05T14:23:30.952Z,14.04
2019-04-05T14:26:00.335Z,14.38
2019-04-05T14:28:28.896Z,14.21
2019-04-05T14:31:02.244Z,14.40
2019-04-05T14:33:27.790Z,14.40
2019-04-05T14:35:57.079Z,14.30
2019-04-05T14:38:25.886Z,14.43
2019-04-05T14:40:55.848Z,14.69
2019-04-05T14:43:24.651Z,14.64
2019-04-05T14:45:54.517Z,14.36
2019-04-05T14:48:23.305Z,14.21
2019-04-05T14:50:52.116Z,13.80
2019-04-05T14:53:20.987Z,13.93
2019-04-05T14:55:51.507Z,14.12
2019-04-05T14:58:20.604Z,13.92
2019-04-05T15:00:51.415Z,13.82
2019-04-05T15:03:20.724Z,13.61
2019-04-05T15:05:49.631Z,13.63
2019-04-05T15:08:20.702Z,13.71
2019-04-05T15:10:51.232Z,13.54
2019-04-05T15:13:17.553Z,13.51
2019-04-05T15:15:46.328Z,13.52
2019-04-05T15:18:15.461Z,13.48
2019-04-05T15:20:44.234Z,13.41
2019-04-05T15:23:15.141Z,13.35
2019-04-05T15:25:43.922Z,13.35
2019-04-05T15:28:12.740Z,13.38
2019-04-05T15:30:41.564Z,13.45
2019-04-05T15:33:11.326Z,13.47
2019-04-05T15:35:40.311Z,13.51
2019-04-05T15:38:09.152Z,13.40
2019-04-05T15:40:39.139Z,13.33
2019-04-05T15:43:07.977Z,13.20
2019-04-05T15:45:36.881Z,13.16
2019-04-05T15:48:06.909Z,13.18
2019-04-05T15:50:35.747Z,13.24
2019-04-05T15:53:04.710Z,13.19
2019-04-05T15:55:34.403Z,12.93
2019-04-05T15:58:03.848Z,12.82
2019-04-05T16:00:41.042Z,12.57
2019-04-05T16:03:09.880Z,12.72
2019-04-05T16:05:38.684Z,12.78
2019-04-05T16:08:07.735Z,12.66
2019-04-05T16:10:36.585Z,12.30
2019-04-05T16:13:07.972Z,12.11
2019-04-05T16:15:34.334Z,12.04
2019-04-05T16:18:03.132Z,12.06
2019-04-05T16:20:32.412Z,12.09
2019-04-05T16:23:01.921Z,12.07
2019-04-05T16:25:31.322Z,11.91
2019-04-05T16:28:00.166Z,11.82
2019-04-05T16:30:29.042Z,11.76
2019-04-05T16:32:59.106Z,11.68
2019-04-05T16:35:28.099Z,11.65
2019-04-05T16:37:57.540Z,11.67
2019-04-05T16:40:27.115Z,11.68
2019-04-05T16:43:02.449Z,11.69
2019-04-05T16:45:25.644Z,11.68
2019-04-05T16:47:55.260Z,11.65
2019-04-05T16:50:24.132Z,11.61
2019-04-05T16:52:52.915Z,11.58
2019-04-05T16:55:21.879Z,11.51
2019-04-05T16:57:51.148Z,11.35
2019-04-05T17:00:19.936Z,11.26
2019-04-05T17:02:49.469Z,11.21
2019-04-05T17:05:19.035Z,11.17
2019-04-05T17:07:48.428Z,11.13
2019-04-05T17:10:17.254Z,11.12
2019-04-05T17:12:46.740Z,11.12
2019-04-05T17:15:17.558Z,11.12
2019-04-05T17:17:47.485Z,11.18
2019-04-05T17:20:17.639Z,11.18
2019-04-05T17:22:57.581Z,11.14
2019-04-05T17:25:19.552Z,11.10
2019-04-05T17:27:48.433Z,11.01
2019-04-05T17:30:17.508Z,10.97
2019-04-05T17:32:46.415Z,10.92
2019-04-05T17:35:15.218Z,10.85
2019-04-05T17:37:44.031Z,10.77
2019-04-05T17:40:13.375Z,10.74
2019-04-05T17:42:43.314Z,10.78
2019-04-05T17:45:12.218Z,10.69
2019-04-05T17:47:41.054Z,10.58
2019-04-05T17:50:10.810Z,10.52
2019-04-05T17:52:38.870Z,10.54
2019-04-05T17:55:07.798Z,10.54
2019-04-05T17:57:36.618Z,10.53
2019-04-05T18:00:06.834Z,10.47
2019-04-05T18:02:35.664Z,10.51
2019-04-05T18:05:05.186Z,10.50
2019-04-05T18:07:34.025Z,10.41
2019-04-05T18:10:02.893Z,10.38
2019-04-05T18:12:31.803Z,10.31
2019-04-05T18:15:00.773Z,10.32
2019-04-05T18:17:30.193Z,10.31
2019-04-05T18:19:59.129Z,10.31
2019-04-05T18:22:28.045Z,10.28
2019-04-05T18:24:57.519Z,10.28
2019-04-05T18:27:26.690Z,10.22
2019-04-05T18:29:55.631Z,10.21
2019-04-05T18:32:24.530Z,10.21
2019-04-05T18:34:53.532Z,10.12
2019-04-05T18:37:22.367Z,10.08
2019-04-05T18:39:51.155Z,10.08
2019-04-05T18:42:20.983Z,10.06
2019-04-05T18:44:49.907Z,10.05
2019-04-05T18:47:19.336Z,10.04
2019-04-05T18:49:48.209Z,10.07
2019-04-05T18:52:17.439Z,10.05
2019-04-05T18:54:46.270Z,9.99
2019-04-05T18:57:15.249Z,9.96
2019-04-05T18:59:44.292Z,9.91
2019-04-05T19:02:16.608Z,9.94
2019-04-05T19:04:45.525Z,9.97
2019-04-05T19:07:14.371Z,9.93
2019-04-05T19:09:43.282Z,9.93
2019-04-05T19:12:12.997Z,9.92
2019-04-05T19:14:42.019Z,9.87
2019-04-05T19:17:23.273Z,9.78
2019-04-05T19:19:42.187Z,9.77
2019-04-05T19:22:12.671Z,9.76
2019-04-05T19:24:41.512Z,9.74
2019-04-05T19:27:11.379Z,9.76
2019-04-05T19:29:41.151Z,9.74
2019-04-05T19:49:35.135Z,9.52
2019-04-05T19:52:03.959Z,9.51
2019-04-05T19:54:33.143Z,9.52
2019-04-05T19:57:02.282Z,9.53
2019-04-05T19:59:31.151Z,9.51
2019-04-05T20:02:01.275Z,9.50
2019-04-05T20:04:30.262Z,9.54
2019-04-05T20:06:59.157Z,9.53
2019-04-05T20:09:28.114Z,9.48
2019-04-05T20:11:57.034Z,9.44
2019-04-05T20:14:25.879Z,9.48
2019-04-05T20:16:54.781Z,9.50
2019-04-05T20:19:23.735Z,9.53
2019-04-05T20:21:52.563Z,9.48
2019-04-05T20:24:21.465Z,9.51
2019-04-05T20:26:50.413Z,9.51
2019-04-05T20:29:20.627Z,9.55
2019-04-05T20:31:48.105Z,9.57
2019-04-05T20:34:17.833Z,9.55
2019-04-05T20:36:46.670Z,9.55
2019-04-05T20:39:15.531Z,9.50
2019-04-05T20:41:44.463Z,9.47
2019-04-05T20:44:13.656Z,9.43
2019-04-05T20:46:42.561Z,9.38
2019-04-05T20:49:12.825Z,9.36
2019-04-05T20:51:42.298Z,9.30
2019-04-05T20:54:12.151Z,9.28
2019-04-05T20:56:41.127Z,9.27
2019-04-05T20:59:09.980Z,9.27
2019-04-05T21:01:39.665Z,9.33
2019-04-05T21:04:08.712Z,9.39
2019-04-05T21:06:37.971Z,9.32
2019-04-05T21:09:07.879Z,9.30
2019-04-05T21:11:36.839Z,9.24
2019-04-05T21:14:05.756Z,9.26
2019-04-05T21:16:34.595Z,9.33
2019-04-05T21:19:05.052Z,9.30
2019-04-05T21:21:33.383Z,9.25
2019-04-05T21:24:02.603Z,9.24
2019-04-05T21:26:31.566Z,9.26
2019-04-05T21:29:00.482Z,9.23
2019-04-05T21:31:29.857Z,9.21
2019-04-05T21:33:59.156Z,9.15
2019-04-05T21:36:28.356Z,9.09
2019-04-05T21:38:58.189Z,9.02
2019-04-05T21:41:27.213Z,9.02
2019-04-05T21:43:56.957Z,8.99
2019-04-05T21:46:25.854Z,8.97
2019-04-05T21:48:54.725Z,9.02
2019-04-05T21:51:24.751Z,8.91
2019-04-05T21:53:53.283Z,8.86
2019-04-05T21:56:22.882Z,8.84
2019-04-05T21:58:51.868Z,8.86
2019-04-05T22:01:21.818Z,8.87
2019-04-05T22:03:50.737Z,8.82
2019-04-05T22:06:20.993Z,8.78
2019-04-05T22:08:50.025Z,8.82
2019-04-05T22:11:19.301Z,8.86
2019-04-05T22:13:48.250Z,8.87
2019-04-05T22:16:17.800Z,8.88
2019-04-05T22:18:46.790Z,8.94
2019-04-05T22:21:16.596Z,8.93
2019-04-05T22:23:45.676Z,8.92
2019-04-05T22:26:15.029Z,8.97
2019-04-05T22:28:44.053Z,8.96
2019-04-05T22:31:13.989Z,8.99
2019-04-05T22:33:42.926Z,8.97
2019-04-05T22:36:12.587Z,8.92
2019-04-05T22:38:41.520Z,8.89
2019-04-05T22:41:10.585Z,8.91
2019-04-05T22:43:39.642Z,8.88
2019-04-05T22:46:09.757Z,8.86
2019-04-05T22:48:38.688Z,8.84
2019-04-05T22:51:07.630Z,8.86
2019-04-05T22:53:36.735Z,8.84
2019-04-05T22:56:05.683Z,8.79
2019-04-05T22:58:34.720Z,8.71
2019-04-05T23:01:03.647Z,8.75
2019-04-05T23:03:32.878Z,8.78
2019-04-05T23:06:01.866Z,8.77
2019-04-05T23:08:30.767Z,8.76
2019-04-05T23:11:01.056Z,8.76
2019-04-05T23:13:30.332Z,8.79
2019-04-05T23:15:59.260Z,8.81
2019-04-05T23:18:28.181Z,8.78
2019-04-05T23:20:57.254Z,8.77
2019-04-05T23:23:26.653Z,8.78
2019-04-05T23:25:55.577Z,8.76
2019-04-05T23:28:24.585Z,8.75
2019-04-05T23:30:53.498Z,8.76
2019-04-05T23:33:22.430Z,8.78
2019-04-05T23:35:51.389Z,8.76
2019-04-05T23:38:21.128Z,8.76
2019-04-05T23:40:50.042Z,8.82
2019-04-05T23:43:19.093Z,8.84
2019-04-05T23:45:48.187Z,8.83
2019-04-05T23:48:17.784Z,8.81
2019-04-05T23:50:47.301Z,8.80
2019-04-05T23:53:17.225Z,8.83
2019-04-05T23:55:46.397Z,8.83
2019-04-05T23:58:15.345Z,8.83
